sensor_id;sensor_type;location;lat;lon;timestamp;P1;durP1;ratioP1;P2;durP2;ratioP2
77738;SDS011;66904;59.926;30.404;2023-02-27T00:01:29;1.30;;;0.60;;
77738;SDS011;66904;59.926;30.404;2023-02-27T00:06:30;1.40;;;0.55;;
77738;SDS011;66904;59.926;30.404;2023-02-27T00:11:30;0.80;;;0.50;;
77738;SDS011;66904;59.926;30.404;2023-02-27T00:16:40;1.30;;;0.75;;
77738;SDS011;66904;59.926;30.404;2023-02-27T00:22:18;1.20;;;0.55;;
77738;SDS011;66904;59.926;30.404;2023-02-27T00:27:18;0.60;;;0.40;;
77738;SDS011;66904;59.926;30.404;2023-02-27T00:32:34;2.10;;;0.63;;
77738;SDS011;66904;59.926;30.404;2023-02-27T00:37:53;1.00;;;0.50;;
77738;SDS011;66904;59.926;30.404;2023-02-27T00:48:50;1.10;;;0.70;;
77738;SDS011;66904;59.926;30.404;2023-02-27T00:53:50;1.20;;;0.68;;
77738;SDS011;66904;59.926;30.404;2023-02-27T01:04:13;0.80;;;0.43;;
77738;SDS011;66904;59.926;30.404;2023-02-27T01:09:28;1.00;;;0.55;;
77738;SDS011;66904;59.926;30.404;2023-02-27T01:14:29;0.75;;;0.40;;
77738;SDS011;66904;59.926;30.404;2023-02-27T01:31:22;1.00;;;0.55;;
77738;SDS011;66904;59.926;30.404;2023-02-27T01:37:03;0.57;;;0.32;;
77738;SDS011;66904;59.926;30.404;2023-02-27T01:42:22;1.20;;;0.60;;
77738;SDS011;66904;59.926;30.404;2023-02-27T01:47:35;0.85;;;0.50;;
77738;SDS011;66904;59.926;30.404;2023-02-27T01:52:52;1.33;;;0.70;;
77738;SDS011;66904;59.926;30.404;2023-02-27T01:57:55;1.27;;;0.60;;
77738;SDS011;66904;59.926;30.404;2023-02-27T02:02:59;1.05;;;0.60;;
77738;SDS011;66904;59.926;30.404;2023-02-27T02:13:49;0.90;;;0.50;;
77738;SDS011;66904;59.926;30.404;2023-02-27T02:35:54;1.65;;;0.70;;
77738;SDS011;66904;59.926;30.404;2023-02-27T03:03:33;1.25;;;0.60;;
77738;SDS011;66904;59.926;30.404;2023-02-27T03:08:54;1.23;;;0.63;;
77738;SDS011;66904;59.926;30.404;2023-02-27T03:14:35;1.20;;;0.55;;
77738;SDS011;66904;59.926;30.404;2023-02-27T03:19:55;0.70;;;0.50;;
77738;SDS011;66904;59.926;30.404;2023-02-27T03:25:34;1.05;;;0.60;;
77738;SDS011;66904;59.926;30.404;2023-02-27T03:31:00;0.88;;;0.47;;
77738;SDS011;66904;59.926;30.404;2023-02-27T03:47:33;0.90;;;0.50;;
77738;SDS011;66904;59.926;30.404;2023-02-27T03:52:52;1.30;;;0.77;;
77738;SDS011;66904;59.926;30.404;2023-02-27T03:58:02;1.33;;;0.68;;
77738;SDS011;66904;59.926;30.404;2023-02-27T04:03:24;1.30;;;0.80;;
77738;SDS011;66904;59.926;30.404;2023-02-27T04:08:31;1.00;;;0.47;;
77738;SDS011;66904;59.926;30.404;2023-02-27T04:34:46;1.48;;;0.70;;
77738;SDS011;66904;59.926;30.404;2023-02-27T04:39:53;1.55;;;0.75;;
77738;SDS011;66904;59.926;30.404;2023-02-27T04:44:56;1.23;;;0.60;;
77738;SDS011;66904;59.926;30.404;2023-02-27T04:50:04;1.20;;;0.70;;
77738;SDS011;66904;59.926;30.404;2023-02-27T05:00:17;1.55;;;0.68;;
77738;SDS011;66904;59.926;30.404;2023-02-27T05:05:22;1.23;;;0.70;;
77738;SDS011;66904;59.926;30.404;2023-02-27T05:10:28;1.50;;;0.70;;
77738;SDS011;66904;59.926;30.404;2023-02-27T05:15:37;1.67;;;0.90;;
77738;SDS011;66904;59.926;30.404;2023-02-27T05:36:23;1.83;;;0.90;;
77738;SDS011;66904;59.926;30.404;2023-02-27T05:46:34;2.05;;;1.00;;
77738;SDS011;66904;59.926;30.404;2023-02-27T05:51:38;1.45;;;0.73;;
77738;SDS011;66904;59.926;30.404;2023-02-27T05:56:42;2.72;;;1.08;;
77738;SDS011;66904;59.926;30.404;2023-02-27T06:01:47;1.40;;;1.10;;
77738;SDS011;66904;59.926;30.404;2023-02-27T06:06:47;2.13;;;1.02;;
77738;SDS011;66904;59.926;30.404;2023-02-27T06:11:48;1.83;;;0.85;;
77738;SDS011;66904;59.926;30.404;2023-02-27T06:16:48;1.52;;;0.85;;
77738;SDS011;66904;59.926;30.404;2023-02-27T06:21:49;3.13;;;0.97;;
77738;SDS011;66904;59.926;30.404;2023-02-27T06:26:49;3.95;;;1.02;;
77738;SDS011;66904;59.926;30.404;2023-02-27T06:31:50;4.33;;;1.20;;
77738;SDS011;66904;59.926;30.404;2023-02-27T06:36:50;2.17;;;1.10;;
77738;SDS011;66904;59.926;30.404;2023-02-27T06:41:51;2.47;;;1.30;;
77738;SDS011;66904;59.926;30.404;2023-02-27T06:46:51;1.98;;;1.08;;
77738;SDS011;66904;59.926;30.404;2023-02-27T06:51:52;2.30;;;0.90;;
77738;SDS011;66904;59.926;30.404;2023-02-27T06:56:52;2.30;;;1.00;;
77738;SDS011;66904;59.926;30.404;2023-02-27T07:01:52;2.63;;;1.33;;
77738;SDS011;66904;59.926;30.404;2023-02-27T07:06:53;2.15;;;1.23;;
77738;SDS011;66904;59.926;30.404;2023-02-27T07:11:54;2.15;;;1.10;;
77738;SDS011;66904;59.926;30.404;2023-02-27T07:16:54;1.52;;;1.08;;
77738;SDS011;66904;59.926;30.404;2023-02-27T07:21:55;1.80;;;1.10;;
77738;SDS011;66904;59.926;30.404;2023-02-27T07:26:55;1.75;;;0.82;;
77738;SDS011;66904;59.926;30.404;2023-02-27T07:31:56;2.47;;;1.20;;
77738;SDS011;66904;59.926;30.404;2023-02-27T07:36:56;1.70;;;1.10;;
77738;SDS011;66904;59.926;30.404;2023-02-27T07:41:57;1.87;;;1.03;;
77738;SDS011;66904;59.926;30.404;2023-02-27T07:46:57;1.67;;;0.80;;
77738;SDS011;66904;59.926;30.404;2023-02-27T07:51:58;1.55;;;0.70;;
77738;SDS011;66904;59.926;30.404;2023-02-27T07:57:00;2.10;;;1.20;;
77738;SDS011;66904;59.926;30.404;2023-02-27T08:02:00;1.37;;;0.77;;
77738;SDS011;66904;59.926;30.404;2023-02-27T08:07:01;2.03;;;0.93;;
77738;SDS011;66904;59.926;30.404;2023-02-27T08:12:02;1.58;;;0.95;;
77738;SDS011;66904;59.926;30.404;2023-02-27T08:17:02;2.35;;;1.02;;
77738;SDS011;66904;59.926;30.404;2023-02-27T08:22:03;1.17;;;0.68;;
77738;SDS011;66904;59.926;30.404;2023-02-27T08:27:03;1.90;;;0.82;;
77738;SDS011;66904;59.926;30.404;2023-02-27T08:32:04;1.63;;;1.02;;
77738;SDS011;66904;59.926;30.404;2023-02-27T08:37:04;1.77;;;0.95;;
77738;SDS011;66904;59.926;30.404;2023-02-27T08:42:05;1.30;;;0.90;;
77738;SDS011;66904;59.926;30.404;2023-02-27T08:47:06;1.70;;;1.00;;
77738;SDS011;66904;59.926;30.404;2023-02-27T08:52:07;1.70;;;0.90;;
77738;SDS011;66904;59.926;30.404;2023-02-27T08:57:08;2.08;;;1.23;;
77738;SDS011;66904;59.926;30.404;2023-02-27T09:02:09;2.85;;;1.20;;
77738;SDS011;66904;59.926;30.404;2023-02-27T09:07:10;2.55;;;1.20;;
77738;SDS011;66904;59.926;30.404;2023-02-27T09:12:11;3.50;;;0.70;;
77738;SDS011;66904;59.926;30.404;2023-02-27T09:17:11;2.28;;;0.95;;
77738;SDS011;66904;59.926;30.404;2023-02-27T09:22:12;2.22;;;0.90;;
77738;SDS011;66904;59.926;30.404;2023-02-27T09:27:12;1.92;;;1.00;;
77738;SDS011;66904;59.926;30.404;2023-02-27T09:32:13;1.80;;;1.20;;
77738;SDS011;66904;59.926;30.404;2023-02-27T09:37:13;2.75;;;0.80;;
77738;SDS011;66904;59.926;30.404;2023-02-27T09:42:19;1.40;;;0.73;;
77738;SDS011;66904;59.926;30.404;2023-02-27T09:47:29;1.50;;;0.85;;
77738;SDS011;66904;59.926;30.404;2023-02-27T09:52:36;2.22;;;0.90;;
77738;SDS011;66904;59.926;30.404;2023-02-27T09:57:41;2.53;;;0.80;;
77738;SDS011;66904;59.926;30.404;2023-02-27T10:03:08;1.25;;;0.80;;
77738;SDS011;66904;59.926;30.404;2023-02-27T10:08:21;1.20;;;0.80;;
77738;SDS011;66904;59.926;30.404;2023-02-27T10:13:32;2.30;;;0.88;;
77738;SDS011;66904;59.926;30.404;2023-02-27T10:19:03;4.80;;;0.90;;
77738;SDS011;66904;59.926;30.404;2023-02-27T10:29:31;1.42;;;0.80;;
77738;SDS011;66904;59.926;30.404;2023-02-27T10:34:33;1.55;;;0.93;;
77738;SDS011;66904;59.926;30.404;2023-02-27T10:39:56;1.70;;;0.75;;
77738;SDS011;66904;59.926;30.404;2023-02-27T10:44:59;1.42;;;0.80;;
77738;SDS011;66904;59.926;30.404;2023-02-27T10:49:59;1.30;;;0.65;;
77738;SDS011;66904;59.926;30.404;2023-02-27T10:55:15;1.20;;;0.57;;
77738;SDS011;66904;59.926;30.404;2023-02-27T11:05:39;0.88;;;0.50;;
77738;SDS011;66904;59.926;30.404;2023-02-27T11:10:51;1.77;;;0.93;;
77738;SDS011;66904;59.926;30.404;2023-02-27T11:16:11;2.80;;;0.88;;
77738;SDS011;66904;59.926;30.404;2023-02-27T11:21:22;2.05;;;0.77;;
77738;SDS011;66904;59.926;30.404;2023-02-27T11:31:34;1.50;;;0.80;;
77738;SDS011;66904;59.926;30.404;2023-02-27T11:36:37;1.60;;;0.80;;
77738;SDS011;66904;59.926;30.404;2023-02-27T11:41:45;1.65;;;0.88;;
77738;SDS011;66904;59.926;30.404;2023-02-27T11:46:46;1.80;;;1.00;;
77738;SDS011;66904;59.926;30.404;2023-02-27T12:14:10;1.50;;;0.80;;
77738;SDS011;66904;59.926;30.404;2023-02-27T12:19:15;1.38;;;0.77;;
77738;SDS011;66904;59.926;30.404;2023-02-27T12:24:22;1.33;;;0.90;;
77738;SDS011;66904;59.926;30.404;2023-02-27T12:29:38;1.70;;;0.90;;
77738;SDS011;66904;59.926;30.404;2023-02-27T12:34:49;1.55;;;1.00;;
77738;SDS011;66904;59.926;30.404;2023-02-27T12:39:59;2.58;;;1.13;;
77738;SDS011;66904;59.926;30.404;2023-02-27T12:45:21;1.88;;;1.00;;
77738;SDS011;66904;59.926;30.404;2023-02-27T12:51:01;2.05;;;1.20;;
77738;SDS011;66904;59.926;30.404;2023-02-27T12:56:24;1.63;;;0.90;;
77738;SDS011;66904;59.926;30.404;2023-02-27T13:27:53;1.65;;;0.75;;
77738;SDS011;66904;59.926;30.404;2023-02-27T13:38:45;1.55;;;0.77;;
77738;SDS011;66904;59.926;30.404;2023-02-27T13:43:48;1.65;;;1.15;;
77738;SDS011;66904;59.926;30.404;2023-02-27T13:59:23;1.70;;;0.90;;
77738;SDS011;66904;59.926;30.404;2023-02-27T14:04:38;1.27;;;0.60;;
77738;SDS011;66904;59.926;30.404;2023-02-27T14:09:58;1.42;;;0.60;;
77738;SDS011;66904;59.926;30.404;2023-02-27T14:15:03;3.05;;;0.60;;
77738;SDS011;66904;59.926;30.404;2023-02-27T14:25:30;1.27;;;0.68;;
77738;SDS011;66904;59.926;30.404;2023-02-27T14:30:43;1.88;;;0.80;;
77738;SDS011;66904;59.926;30.404;2023-02-27T14:36:01;1.27;;;0.60;;
77738;SDS011;66904;59.926;30.404;2023-02-27T14:46:34;2.55;;;0.68;;
77738;SDS011;66904;59.926;30.404;2023-02-27T14:51:37;4.95;;;0.90;;
77738;SDS011;66904;59.926;30.404;2023-02-27T14:56:38;1.42;;;0.57;;
77738;SDS011;66904;59.926;30.404;2023-02-27T15:01:40;1.23;;;0.43;;
77738;SDS011;66904;59.926;30.404;2023-02-27T15:06:44;5.75;;;1.45;;
77738;SDS011;66904;59.926;30.404;2023-02-27T15:11:48;2.30;;;0.63;;
77738;SDS011;66904;59.926;30.404;2023-02-27T15:16:54;1.20;;;0.60;;
77738;SDS011;66904;59.926;30.404;2023-02-27T15:21:57;1.92;;;0.80;;
77738;SDS011;66904;59.926;30.404;2023-02-27T15:27:00;3.47;;;0.90;;
77738;SDS011;66904;59.926;30.404;2023-02-27T15:32:14;1.83;;;0.60;;
77738;SDS011;66904;59.926;30.404;2023-02-27T15:37:26;1.85;;;0.70;;
77738;SDS011;66904;59.926;30.404;2023-02-27T15:42:30;6.18;;;0.60;;
77738;SDS011;66904;59.926;30.404;2023-02-27T15:47:34;1.08;;;0.47;;
77738;SDS011;66904;59.926;30.404;2023-02-27T15:52:42;0.70;;;0.50;;
77738;SDS011;66904;59.926;30.404;2023-02-27T15:57:50;1.63;;;0.70;;
77738;SDS011;66904;59.926;30.404;2023-02-27T16:02:52;1.77;;;0.80;;
77738;SDS011;66904;59.926;30.404;2023-02-27T16:07:54;1.30;;;0.65;;
77738;SDS011;66904;59.926;30.404;2023-02-27T16:12:55;2.13;;;0.65;;
77738;SDS011;66904;59.926;30.404;2023-02-27T16:28:27;1.13;;;0.70;;
77738;SDS011;66904;59.926;30.404;2023-02-27T16:33:30;2.08;;;0.60;;
77738;SDS011;66904;59.926;30.404;2023-02-27T16:38:35;2.63;;;0.60;;
77738;SDS011;66904;59.926;30.404;2023-02-27T16:43:36;2.22;;;0.60;;
77738;SDS011;66904;59.926;30.404;2023-02-27T16:48:36;0.77;;;0.40;;
77738;SDS011;66904;59.926;30.404;2023-02-27T16:53:37;2.30;;;0.50;;
77738;SDS011;66904;59.926;30.404;2023-02-27T16:58:37;1.98;;;0.68;;
77738;SDS011;66904;59.926;30.404;2023-02-27T17:03:39;3.47;;;0.80;;
77738;SDS011;66904;59.926;30.404;2023-02-27T17:08:41;4.30;;;1.23;;
77738;SDS011;66904;59.926;30.404;2023-02-27T17:13:43;4.65;;;1.50;;
77738;SDS011;66904;59.926;30.404;2023-02-27T17:18:44;6.60;;;1.60;;
77738;SDS011;66904;59.926;30.404;2023-02-27T17:23:44;3.70;;;0.80;;
77738;SDS011;66904;59.926;30.404;2023-02-27T17:28:45;2.58;;;0.88;;
77738;SDS011;66904;59.926;30.404;2023-02-27T17:33:46;2.00;;;0.90;;
77738;SDS011;66904;59.926;30.404;2023-02-27T17:38:47;2.05;;;0.70;;
77738;SDS011;66904;59.926;30.404;2023-02-27T17:43:52;2.40;;;1.02;;
77738;SDS011;66904;59.926;30.404;2023-02-27T17:48:55;3.30;;;0.65;;
77738;SDS011;66904;59.926;30.404;2023-02-27T17:54:00;2.05;;;0.57;;
77738;SDS011;66904;59.926;30.404;2023-02-27T17:59:03;1.35;;;0.50;;
77738;SDS011;66904;59.926;30.404;2023-02-27T18:04:04;1.58;;;0.40;;
77738;SDS011;66904;59.926;30.404;2023-02-27T18:09:07;1.13;;;0.40;;
77738;SDS011;66904;59.926;30.404;2023-02-27T18:14:07;1.35;;;0.50;;
77738;SDS011;66904;59.926;30.404;2023-02-27T18:19:08;1.40;;;0.55;;
77738;SDS011;66904;59.926;30.404;2023-02-27T18:24:08;1.10;;;0.40;;
77738;SDS011;66904;59.926;30.404;2023-02-27T18:29:09;2.20;;;0.50;;
77738;SDS011;66904;59.926;30.404;2023-02-27T18:34:11;1.67;;;0.40;;
77738;SDS011;66904;59.926;30.404;2023-02-27T18:39:11;1.30;;;0.50;;
77738;SDS011;66904;59.926;30.404;2023-02-27T18:44:12;1.00;;;0.50;;
77738;SDS011;66904;59.926;30.404;2023-02-27T18:49:13;0.98;;;0.55;;
77738;SDS011;66904;59.926;30.404;2023-02-27T18:54:14;0.95;;;0.47;;
77738;SDS011;66904;59.926;30.404;2023-02-27T18:59:15;1.20;;;0.60;;
77738;SDS011;66904;59.926;30.404;2023-02-27T19:04:15;0.80;;;0.40;;
77738;SDS011;66904;59.926;30.404;2023-02-27T19:09:16;1.60;;;0.60;;
77738;SDS011;66904;59.926;30.404;2023-02-27T19:14:16;4.78;;;0.50;;
77738;SDS011;66904;59.926;30.404;2023-02-27T19:19:17;31.08;;;28.38;;
77738;SDS011;66904;59.926;30.404;2023-02-27T19:24:18;117.30;;;93.00;;
77738;SDS011;66904;59.926;30.404;2023-02-27T19:29:19;343.08;;;232.70;;
77738;SDS011;66904;59.926;30.404;2023-02-27T19:34:19;438.35;;;349.60;;
77738;SDS011;66904;59.926;30.404;2023-02-27T19:39:21;306.05;;;230.70;;
77738;SDS011;66904;59.926;30.404;2023-02-27T19:44:22;227.52;;;158.43;;
77738;SDS011;66904;59.926;30.404;2023-02-27T19:49:25;170.90;;;122.72;;
77738;SDS011;66904;59.926;30.404;2023-02-27T19:54:26;109.68;;;81.43;;
77738;SDS011;66904;59.926;30.404;2023-02-27T19:59:26;55.00;;;39.85;;
77738;SDS011;66904;59.926;30.404;2023-02-27T20:04:27;29.95;;;22.38;;
77738;SDS011;66904;59.926;30.404;2023-02-27T20:09:27;22.10;;;16.98;;
77738;SDS011;66904;59.926;30.404;2023-02-27T20:14:28;17.83;;;14.00;;
77738;SDS011;66904;59.926;30.404;2023-02-27T20:19:29;14.75;;;11.65;;
77738;SDS011;66904;59.926;30.404;2023-02-27T20:24:29;11.48;;;8.15;;
77738;SDS011;66904;59.926;30.404;2023-02-27T20:29:30;7.00;;;5.35;;
77738;SDS011;66904;59.926;30.404;2023-02-27T20:34:30;5.90;;;3.63;;
77738;SDS011;66904;59.926;30.404;2023-02-27T20:39:31;3.85;;;2.40;;
77738;SDS011;66904;59.926;30.404;2023-02-27T20:44:31;3.65;;;1.65;;
77738;SDS011;66904;59.926;30.404;2023-02-27T20:49:32;2.55;;;1.20;;
77738;SDS011;66904;59.926;30.404;2023-02-27T20:54:32;2.95;;;1.80;;
77738;SDS011;66904;59.926;30.404;2023-02-27T20:59:33;1.73;;;1.08;;
77738;SDS011;66904;59.926;30.404;2023-02-27T21:04:33;1.70;;;0.85;;
77738;SDS011;66904;59.926;30.404;2023-02-27T21:09:42;1.45;;;0.80;;
77738;SDS011;66904;59.926;30.404;2023-02-27T21:14:43;1.60;;;0.70;;
77738;SDS011;66904;59.926;30.404;2023-02-27T21:19:44;1.95;;;0.80;;
77738;SDS011;66904;59.926;30.404;2023-02-27T21:24:44;2.28;;;0.82;;
77738;SDS011;66904;59.926;30.404;2023-02-27T21:29:48;0.98;;;0.50;;
77738;SDS011;66904;59.926;30.404;2023-02-27T21:34:49;1.50;;;0.73;;
77738;SDS011;66904;59.926;30.404;2023-02-27T21:39:50;1.50;;;0.80;;
77738;SDS011;66904;59.926;30.404;2023-02-27T21:44:54;2.22;;;0.70;;
77738;SDS011;66904;59.926;30.404;2023-02-27T21:50:00;1.08;;;0.52;;
77738;SDS011;66904;59.926;30.404;2023-02-27T21:55:01;1.75;;;0.50;;
77738;SDS011;66904;59.926;30.404;2023-02-27T22:00:02;1.17;;;0.57;;
77738;SDS011;66904;59.926;30.404;2023-02-27T22:05:06;1.30;;;0.50;;
77738;SDS011;66904;59.926;30.404;2023-02-27T22:10:07;1.17;;;0.68;;
77738;SDS011;66904;59.926;30.404;2023-02-27T22:21:09;1.25;;;0.60;;
77738;SDS011;66904;59.926;30.404;2023-02-27T22:26:20;1.23;;;0.43;;
77738;SDS011;66904;59.926;30.404;2023-02-27T22:31:49;1.17;;;0.47;;
77738;SDS011;66904;59.926;30.404;2023-02-27T22:36:49;0.95;;;0.40;;
77738;SDS011;66904;59.926;30.404;2023-02-27T22:47:41;0.90;;;0.40;;
77738;SDS011;66904;59.926;30.404;2023-02-27T22:52:57;0.77;;;0.30;;
77738;SDS011;66904;59.926;30.404;2023-02-27T22:57:57;1.02;;;0.50;;
77738;SDS011;66904;59.926;30.404;2023-02-27T23:08:38;1.10;;;0.38;;
77738;SDS011;66904;59.926;30.404;2023-02-27T23:13:58;0.93;;;0.40;;
77738;SDS011;66904;59.926;30.404;2023-02-27T23:18:59;1.30;;;0.43;;
77738;SDS011;66904;59.926;30.404;2023-02-27T23:24:06;0.35;;;0.20;;
77738;SDS011;66904;59.926;30.404;2023-02-27T23:29:26;1.02;;;0.30;;
77738;SDS011;66904;59.926;30.404;2023-02-27T23:46:37;0.57;;;0.30;;
77738;SDS011;66904;59.926;30.404;2023-02-27T23:51:40;0.82;;;0.30;;
77738;SDS011;66904;59.926;30.404;2023-02-27T23:56:41;0.32;;;0.10;;
